createdAt,value
2018-09-23T00:00:24.511Z,1.40
2018-09-23T00:01:24.547Z,1.90
2018-09-23T00:02:24.578Z,1.40
2018-09-23T00:03:24.612Z,1.70
2018-09-23T00:04:24.643Z,1.50
2018-09-23T00:05:24.673Z,1.50
2018-09-23T00:06:24.709Z,1.70
2018-09-23T00:07:24.741Z,1.70
2018-09-23T00:08:24.777Z,1.60
2018-09-23T00:09:24.807Z,1.90
2018-09-23T00:10:24.840Z,2.00
2018-09-23T00:11:24.874Z,1.70
2018-09-23T00:12:24.907Z,1.90
2018-09-23T00:13:24.939Z,1.70
2018-09-23T00:14:24.972Z,1.90
2018-09-23T00:15:25.005Z,1.60
2018-09-23T00:16:25.038Z,1.80
2018-09-23T00:17:25.071Z,1.70
2018-09-23T00:18:25.104Z,1.60
2018-09-23T00:19:25.136Z,1.50
2018-09-23T00:20:25.170Z,1.70
2018-09-23T00:21:25.202Z,1.90
2018-09-23T00:22:25.235Z,1.70
2018-09-23T00:23:25.270Z,2.00
2018-09-23T00:24:25.304Z,1.70
2018-09-23T00:25:25.334Z,1.60
2018-09-23T00:26:25.369Z,1.90
2018-09-23T00:27:25.401Z,1.50
2018-09-23T00:28:25.433Z,1.40
2018-09-23T00:29:25.466Z,1.20
2018-09-23T00:30:25.500Z,1.40
2018-09-23T00:31:25.534Z,1.50
2018-09-23T00:32:25.568Z,1.30
2018-09-23T00:33:25.599Z,1.60
2018-09-23T00:34:25.632Z,1.20
2018-09-23T00:35:25.665Z,1.40
2018-09-23T00:36:25.697Z,1.20
2018-09-23T00:37:25.732Z,1.30
2018-09-23T00:38:25.765Z,1.30
2018-09-23T00:39:25.799Z,1.40
2018-09-23T00:40:25.831Z,1.20
2018-09-23T00:41:25.862Z,1.50
2018-09-23T00:42:25.898Z,1.40
2018-09-23T00:43:25.933Z,1.40
2018-09-23T00:44:25.963Z,1.30
2018-09-23T00:45:25.995Z,1.40
2018-09-23T00:46:26.029Z,1.70
2018-09-23T00:47:26.061Z,1.20
2018-09-23T00:48:26.093Z,1.30
2018-09-23T00:49:26.128Z,1.50
2018-09-23T00:50:26.163Z,1.60
2018-09-23T00:51:26.194Z,1.50
2018-09-23T00:52:26.228Z,1.20
2018-09-23T00:53:26.260Z,1.40
2018-09-23T00:54:26.297Z,1.30
2018-09-23T00:55:26.327Z,1.40
2018-09-23T00:56:26.360Z,1.50
2018-09-23T00:57:26.393Z,1.30
2018-09-23T00:58:26.428Z,1.20
2018-09-23T00:59:26.459Z,1.40
2018-09-23T01:00:26.493Z,1.30
2018-09-23T01:01:26.526Z,1.20
2018-09-23T01:02:26.560Z,1.90
2018-09-23T01:03:26.592Z,1.60
2018-09-23T01:04:26.628Z,1.10
2018-09-23T01:05:26.659Z,1.60
2018-09-23T01:06:26.692Z,1.20
2018-09-23T01:07:26.726Z,1.80
2018-09-23T01:08:26.760Z,1.10
2018-09-23T01:09:26.792Z,1.30
2018-09-23T01:10:26.826Z,1.40
2018-09-23T01:11:26.860Z,1.10
2018-09-23T01:12:26.892Z,1.00
2018-09-23T01:13:26.926Z,1.10
2018-09-23T01:14:26.960Z,1.10
2018-09-23T01:15:26.992Z,1.50
2018-09-23T01:16:27.028Z,1.20
2018-09-23T01:17:27.066Z,1.30
2018-09-23T01:18:27.092Z,1.30
2018-09-23T01:19:27.126Z,1.10
2018-09-23T01:20:27.160Z,1.10
2018-09-23T01:21:27.192Z,1.10
2018-09-23T01:22:27.230Z,1.50
2018-09-23T01:23:27.259Z,1.20
2018-09-23T01:24:27.295Z,1.30
2018-09-23T01:25:27.326Z,1.20
2018-09-23T01:26:27.359Z,1.50
2018-09-23T01:27:27.393Z,1.40
2018-09-23T01:28:27.426Z,1.20
2018-09-23T01:29:27.459Z,1.20
2018-09-23T01:30:27.494Z,1.30
2018-09-23T01:31:27.530Z,1.00
2018-09-23T01:32:27.560Z,1.50
2018-09-23T01:33:27.592Z,1.40
2018-09-23T01:34:27.626Z,1.50
2018-09-23T01:35:27.661Z,1.40
2018-09-23T01:36:27.693Z,1.20
2018-09-23T01:37:27.726Z,1.20
2018-09-23T01:38:27.760Z,1.30
2018-09-23T01:39:27.793Z,1.50
2018-09-23T01:40:27.827Z,1.60
2018-09-23T01:41:27.859Z,1.40
2018-09-23T01:42:27.893Z,0.90
2018-09-23T01:43:27.929Z,1.30
2018-09-23T01:44:27.961Z,1.40
2018-09-23T01:45:28.012Z,1.20
2018-09-23T01:46:28.029Z,1.00
2018-09-23T01:47:28.062Z,1.60
2018-09-23T01:48:28.096Z,1.20
2018-09-23T01:49:28.128Z,1.10
2018-09-23T01:50:28.162Z,1.20
2018-09-23T01:51:28.197Z,1.20
2018-09-23T01:52:28.230Z,1.30
2018-09-23T01:53:28.264Z,1.40
2018-09-23T01:54:28.297Z,1.10
2018-09-23T01:55:28.331Z,1.00
2018-09-23T01:56:28.366Z,1.50
2018-09-23T01:57:28.400Z,1.10
2018-09-23T01:58:28.449Z,1.40
2018-09-23T01:59:28.466Z,1.40
2018-09-23T02:00:28.502Z,1.90
2018-09-23T02:01:28.535Z,1.20
2018-09-23T02:02:28.568Z,1.20
2018-09-23T02:03:28.602Z,1.50
2018-09-23T02:04:28.640Z,1.10
2018-09-23T02:05:28.671Z,1.40
2018-09-23T02:06:28.705Z,1.50
2018-09-23T02:07:28.740Z,1.20
2018-09-23T02:08:28.774Z,1.10
2018-09-23T02:09:28.806Z,1.10
2018-09-23T02:10:28.841Z,1.40
2018-09-23T02:11:28.876Z,1.50
2018-09-23T02:12:28.910Z,1.30
2018-09-23T02:13:28.943Z,1.00
2018-09-23T02:14:28.988Z,1.20
2018-09-23T02:15:29.018Z,1.00
2018-09-23T02:16:29.049Z,1.20
2018-09-23T02:17:29.081Z,1.20
2018-09-23T02:18:29.116Z,1.50
2018-09-23T02:19:29.151Z,1.30
2018-09-23T02:20:29.185Z,1.10
2018-09-23T02:21:29.220Z,1.70
2018-09-23T02:22:29.254Z,1.20
2018-09-23T02:23:29.289Z,1.60
2018-09-23T02:24:29.324Z,1.40
2018-09-23T02:25:29.357Z,1.70
2018-09-23T02:26:29.393Z,1.40
2018-09-23T02:27:29.427Z,1.10
2018-09-23T02:28:29.464Z,1.40
2018-09-23T02:29:29.497Z,1.20
2018-09-23T02:30:29.532Z,1.30
2018-09-23T02:31:29.567Z,1.20
2018-09-23T02:32:29.607Z,1.30
2018-09-23T02:33:29.637Z,1.20
2018-09-23T02:34:29.670Z,1.10
2018-09-23T02:35:29.705Z,1.20
2018-09-23T02:36:29.740Z,1.30
2018-09-23T02:37:29.775Z,1.20
2018-09-23T02:38:29.810Z,1.30
2018-09-23T02:39:29.845Z,1.30
2018-09-23T02:40:29.883Z,0.90
2018-09-23T02:41:29.914Z,1.20
2018-09-23T02:42:29.951Z,1.30
2018-09-23T02:43:29.985Z,1.40
2018-09-23T02:44:30.028Z,1.50
2018-09-23T02:45:30.054Z,1.30
2018-09-23T02:46:30.090Z,1.20
2018-09-23T02:47:30.123Z,1.00
2018-09-23T02:48:30.159Z,1.20
2018-09-23T02:49:30.193Z,1.00
2018-09-23T02:50:30.229Z,0.90
2018-09-23T02:51:30.268Z,1.20
2018-09-23T02:52:30.299Z,1.30
2018-09-23T02:53:30.333Z,1.20
2018-09-23T02:54:30.369Z,1.10
2018-09-23T02:55:30.405Z,1.20
2018-09-23T02:56:30.440Z,1.50
2018-09-23T02:57:30.475Z,1.10
2018-09-23T02:58:30.509Z,1.00
2018-09-23T02:59:30.546Z,1.10
2018-09-23T03:00:30.579Z,1.20
2018-09-23T03:01:30.614Z,1.70
2018-09-23T03:02:30.655Z,1.10
2018-09-23T03:03:30.686Z,1.30
2018-09-23T03:04:30.721Z,1.10
2018-09-23T03:05:30.756Z,1.00
2018-09-23T03:06:30.790Z,1.20
2018-09-23T03:07:30.828Z,1.10
2018-09-23T03:08:30.861Z,1.10
2018-09-23T03:09:30.895Z,1.20
2018-09-23T03:10:30.931Z,1.20
2018-09-23T03:11:30.966Z,1.50
2018-09-23T03:12:31.002Z,1.30
2018-09-23T03:13:31.036Z,1.20
2018-09-23T03:14:31.073Z,1.20
2018-09-23T03:15:31.107Z,1.00
2018-09-23T03:16:31.142Z,1.20
2018-09-23T03:17:31.177Z,1.20
2018-09-23T03:18:31.213Z,1.20
2018-09-23T03:19:31.247Z,1.10
2018-09-23T03:20:31.284Z,1.00
2018-09-23T03:21:31.319Z,1.10
2018-09-23T03:22:31.353Z,1.10
2018-09-23T03:23:31.389Z,1.00
2018-09-23T03:24:31.425Z,1.20
2018-09-23T03:25:31.460Z,1.10
2018-09-23T03:26:31.496Z,1.00
2018-09-23T03:27:31.529Z,1.40
2018-09-23T03:28:31.569Z,1.50
2018-09-23T03:29:31.600Z,1.20
2018-09-23T03:30:31.636Z,1.20
2018-09-23T03:31:31.671Z,1.00
2018-09-23T03:32:31.708Z,1.20
2018-09-23T03:33:31.741Z,1.00
2018-09-23T03:34:31.777Z,1.10
2018-09-23T03:35:31.811Z,1.20
2018-09-23T03:36:31.848Z,1.00
2018-09-23T03:37:31.882Z,1.10
2018-09-23T03:38:31.917Z,1.00
2018-09-23T03:39:31.952Z,1.30
2018-09-23T03:40:31.988Z,1.30
2018-09-23T03:41:32.023Z,1.20
2018-09-23T03:42:32.058Z,1.10
2018-09-23T03:43:32.094Z,1.40
2018-09-23T03:44:32.130Z,1.20
2018-09-23T03:45:32.164Z,1.00
2018-09-23T03:46:32.203Z,1.00
2018-09-23T03:47:32.236Z,1.00
2018-09-23T03:48:32.271Z,1.10
2018-09-23T03:49:32.307Z,1.00
2018-09-23T03:50:32.344Z,1.20
2018-09-23T03:51:32.377Z,1.10
2018-09-23T03:52:32.412Z,1.50
2018-09-23T03:53:32.447Z,1.20
2018-09-23T03:54:32.484Z,1.10
2018-09-23T03:55:32.520Z,1.80
2018-09-23T03:56:32.557Z,1.30
2018-09-23T03:57:32.591Z,1.00
2018-09-23T03:58:32.628Z,0.90
2018-09-23T03:59:32.660Z,1.20
2018-09-23T04:00:32.695Z,1.50
2018-09-23T04:01:32.733Z,1.10
2018-09-23T04:02:32.766Z,1.10
2018-09-23T04:03:32.801Z,1.50
2018-09-23T04:04:32.836Z,1.20
2018-09-23T04:05:32.870Z,1.00
2018-09-23T04:06:32.908Z,1.10
2018-09-23T04:07:32.944Z,1.00
2018-09-23T04:08:32.977Z,1.20
2018-09-23T04:09:33.016Z,1.00
2018-09-23T04:10:33.047Z,1.00
2018-09-23T04:11:33.083Z,1.10
2018-09-23T04:12:33.123Z,1.00
2018-09-23T04:13:33.153Z,0.90
2018-09-23T04:14:33.192Z,1.10
2018-09-23T04:15:33.224Z,1.00
2018-09-23T04:16:33.259Z,1.20
2018-09-23T04:17:33.295Z,1.30
2018-09-23T04:18:33.360Z,1.00
2018-09-23T04:19:33.365Z,1.20
2018-09-23T04:20:33.401Z,1.50
2018-09-23T04:21:33.435Z,1.10
2018-09-23T04:22:33.471Z,1.30
2018-09-23T04:23:33.506Z,1.30
2018-09-23T04:24:33.543Z,1.50
2018-09-23T04:25:33.577Z,1.10
2018-09-23T04:26:33.612Z,1.00
2018-09-23T04:27:33.853Z,1.00
2018-09-23T04:28:33.683Z,0.90
2018-09-23T04:29:33.719Z,1.00
2018-09-23T04:30:33.753Z,1.20
2018-09-23T04:31:33.788Z,1.00
2018-09-23T04:32:33.824Z,1.20
2018-09-23T04:33:33.859Z,1.00
2018-09-23T04:34:33.894Z,1.40
2018-09-23T04:35:33.929Z,1.10
2018-09-23T04:36:33.965Z,1.10
2018-09-23T04:37:34.000Z,0.90
2018-09-23T04:38:34.035Z,1.20
2018-09-23T04:39:34.070Z,0.90
2018-09-23T04:40:34.132Z,1.00
2018-09-23T04:41:34.142Z,1.10
2018-09-23T04:42:34.175Z,1.10
2018-09-23T04:43:34.212Z,1.00
2018-09-23T04:44:34.247Z,1.00
2018-09-23T04:45:34.283Z,1.20
2018-09-23T04:46:34.318Z,1.60
2018-09-23T04:47:34.354Z,1.10
2018-09-23T04:48:34.388Z,1.20
2018-09-23T04:49:34.423Z,1.10
2018-09-23T04:50:34.458Z,1.10
2018-09-23T04:51:34.495Z,1.00
2018-09-23T04:52:34.528Z,1.20
2018-09-23T04:53:34.564Z,0.90
2018-09-23T04:54:34.599Z,1.60
2018-09-23T04:55:34.636Z,1.10
2018-09-23T04:56:34.670Z,0.90
2018-09-23T04:57:34.705Z,1.20
2018-09-23T04:58:34.740Z,1.10
2018-09-23T04:59:34.776Z,0.90
2018-09-23T05:00:34.811Z,0.90
2018-09-23T05:01:34.846Z,1.10
2018-09-23T05:02:34.896Z,1.30
2018-09-23T05:03:34.918Z,1.00
2018-09-23T05:04:34.956Z,1.30
2018-09-23T05:05:34.988Z,1.00
2018-09-23T05:06:35.023Z,1.10
2018-09-23T05:07:35.059Z,1.10
2018-09-23T05:08:35.094Z,1.00
2018-09-23T05:09:35.128Z,1.10
2018-09-23T05:10:35.165Z,1.00
2018-09-23T05:11:35.199Z,0.90
2018-09-23T05:12:35.235Z,1.70
2018-09-23T05:13:35.269Z,1.00
2018-09-23T05:14:35.305Z,1.10
2018-09-23T05:15:35.341Z,1.00
2018-09-23T05:16:35.378Z,1.10
2018-09-23T05:17:35.411Z,1.00
2018-09-23T05:18:35.448Z,1.30
2018-09-23T05:19:35.482Z,0.90
2018-09-23T05:20:35.521Z,1.10
2018-09-23T05:21:35.553Z,0.90
2018-09-23T05:22:35.591Z,1.20
2018-09-23T05:23:35.623Z,1.20
2018-09-23T05:24:35.681Z,1.40
2018-09-23T05:25:35.694Z,1.00
2018-09-23T05:26:35.753Z,1.20
2018-09-23T05:27:35.767Z,1.20
2018-09-23T05:28:35.801Z,1.00
2018-09-23T05:29:35.836Z,1.10
2018-09-23T05:30:35.871Z,1.80
2018-09-23T05:31:35.907Z,1.20
2018-09-23T05:32:35.943Z,1.30
2018-09-23T05:33:35.981Z,1.00
2018-09-23T05:34:36.015Z,1.10
2018-09-23T05:35:36.049Z,1.20
2018-09-23T05:36:36.084Z,1.30
2018-09-23T05:37:36.119Z,1.30
2018-09-23T05:38:36.161Z,1.10
2018-09-23T05:39:36.190Z,1.10
2018-09-23T05:40:36.227Z,1.20
2018-09-23T05:41:36.261Z,0.90
2018-09-23T05:42:36.297Z,1.30
2018-09-23T05:43:36.335Z,1.00
2018-09-23T05:44:36.369Z,1.10
2018-09-23T05:45:36.403Z,1.10
2018-09-23T05:46:36.439Z,1.20
2018-09-23T05:47:36.475Z,1.00
2018-09-23T05:48:36.512Z,1.20
2018-09-23T05:49:36.590Z,1.30
2018-09-23T05:50:36.581Z,1.20
2018-09-23T05:51:36.617Z,1.10
2018-09-23T05:52:36.652Z,0.90
2018-09-23T05:53:36.687Z,1.60
2018-09-23T05:54:36.723Z,1.20
2018-09-23T05:55:36.761Z,1.00
2018-09-23T05:56:36.796Z,1.30
2018-09-23T05:57:36.831Z,1.10
2018-09-23T05:58:36.867Z,1.10
2018-09-23T05:59:36.903Z,1.20
2018-09-23T06:00:36.938Z,1.30
2018-09-23T06:01:36.973Z,1.20
2018-09-23T06:02:37.010Z,1.20
2018-09-23T06:03:37.046Z,0.90
2018-09-23T06:04:37.081Z,1.10
2018-09-23T06:05:37.119Z,1.40
2018-09-23T06:06:37.156Z,1.10
2018-09-23T06:07:37.190Z,1.10
2018-09-23T06:08:37.230Z,1.00
2018-09-23T06:09:37.260Z,1.10
2018-09-23T06:10:37.296Z,1.00
2018-09-23T06:11:37.332Z,1.00
2018-09-23T06:12:37.370Z,1.10
2018-09-23T06:13:37.403Z,1.20
2018-09-23T06:14:37.441Z,1.20
2018-09-23T06:15:37.476Z,1.20
2018-09-23T06:16:37.512Z,1.00
2018-09-23T06:17:37.550Z,1.10
2018-09-23T06:18:37.583Z,1.10
2018-09-23T06:19:37.621Z,0.90
2018-09-23T06:20:37.657Z,1.30
2018-09-23T06:21:37.693Z,1.00
2018-09-23T06:22:37.729Z,1.10
2018-09-23T06:23:37.764Z,1.00
2018-09-23T06:24:37.800Z,1.30
2018-09-23T06:25:37.835Z,1.20
2018-09-23T06:26:37.871Z,1.00
2018-09-23T06:27:37.915Z,1.20
2018-09-23T06:28:37.944Z,1.10
2018-09-23T06:29:37.980Z,0.90
2018-09-23T06:30:38.018Z,1.50
2018-09-23T06:31:38.052Z,1.00
2018-09-23T06:32:38.089Z,1.20
2018-09-23T06:33:38.124Z,1.30
2018-09-23T06:34:38.162Z,0.80
2018-09-23T06:35:38.197Z,1.20
2018-09-23T06:36:38.238Z,1.00
2018-09-23T06:37:38.269Z,1.10
2018-09-23T06:38:38.306Z,1.00
2018-09-23T06:39:38.342Z,0.90
2018-09-23T06:40:38.379Z,0.90
2018-09-23T06:41:38.416Z,0.80
2018-09-23T06:42:38.452Z,1.10
2018-09-23T06:43:38.487Z,1.00
2018-09-23T06:44:38.523Z,1.00
2018-09-23T06:45:38.604Z,0.90
2018-09-23T06:46:38.595Z,0.90
2018-09-23T06:47:38.631Z,1.00
2018-09-23T06:48:38.668Z,1.00
2018-09-23T06:49:38.704Z,1.00
2018-09-23T06:50:38.742Z,1.20
2018-09-23T06:51:38.778Z,1.00
2018-09-23T06:52:38.813Z,1.00
2018-09-23T06:53:38.850Z,0.90
2018-09-23T06:54:38.890Z,1.20
2018-09-23T06:55:38.925Z,1.50
2018-09-23T06:56:38.960Z,0.80
2018-09-23T06:57:38.995Z,1.00
2018-09-23T06:58:39.032Z,1.00
2018-09-23T06:59:39.069Z,1.20
2018-09-23T07:00:39.106Z,1.10
2018-09-23T07:01:39.141Z,0.90
2018-09-23T07:02:39.179Z,1.10
2018-09-23T07:03:39.215Z,0.80
2018-09-23T07:04:39.333Z,1.10
2018-09-23T07:05:39.287Z,1.10
2018-09-23T07:06:39.325Z,1.00
2018-09-23T07:07:39.359Z,1.20
2018-09-23T07:08:39.396Z,0.90
2018-09-23T07:09:39.432Z,1.10
2018-09-23T07:10:39.470Z,1.00
2018-09-23T07:11:39.507Z,1.10
2018-09-23T07:12:39.543Z,1.00
2018-09-23T07:13:39.578Z,1.30
2018-09-23T07:14:39.618Z,1.10
2018-09-23T07:15:39.653Z,1.00
2018-09-23T07:16:39.688Z,1.00
2018-09-23T07:17:39.725Z,1.10
2018-09-23T07:18:39.761Z,1.10
2018-09-23T07:19:39.798Z,0.90
2018-09-23T07:20:39.840Z,1.00
2018-09-23T07:21:39.871Z,1.10
2018-09-23T07:22:39.908Z,1.00
2018-09-23T07:23:40.016Z,1.10
2018-09-23T07:24:39.983Z,0.80
2018-09-23T07:25:40.019Z,1.00
2018-09-23T07:26:40.056Z,1.00
2018-09-23T07:27:40.094Z,1.20
2018-09-23T07:28:40.133Z,1.00
2018-09-23T07:29:40.169Z,1.20
2018-09-23T07:30:40.204Z,0.80
2018-09-23T07:31:40.241Z,0.80
2018-09-23T07:32:40.286Z,1.10
2018-09-23T07:33:40.314Z,1.00
2018-09-23T07:34:40.352Z,1.00
2018-09-23T07:35:40.389Z,1.00
2018-09-23T07:36:40.481Z,0.90
2018-09-23T07:37:40.465Z,1.00
2018-09-23T07:38:40.501Z,1.10
2018-09-23T07:39:40.627Z,1.00
2018-09-23T07:40:40.576Z,1.00
2018-09-23T07:41:40.613Z,1.00
2018-09-23T07:42:40.651Z,0.90
2018-09-23T07:43:40.694Z,1.00
2018-09-23T07:44:40.731Z,0.90
2018-09-23T07:45:40.762Z,1.10
2018-09-23T07:46:40.801Z,1.30
2018-09-23T07:47:40.840Z,0.80
2018-09-23T07:48:40.877Z,1.20
2018-09-23T07:49:40.914Z,0.90
2018-09-23T07:50:40.952Z,0.90
2018-09-23T07:51:40.989Z,1.00
2018-09-23T07:52:41.028Z,0.90
2018-09-23T07:53:41.067Z,0.90
2018-09-23T07:54:41.103Z,0.90
2018-09-23T07:55:41.141Z,0.90
2018-09-23T07:56:41.179Z,0.90
2018-09-23T07:57:41.216Z,1.00
2018-09-23T07:58:41.255Z,1.00
2018-09-23T07:59:41.293Z,1.00
2018-09-23T08:00:41.332Z,0.90
2018-09-23T08:01:41.369Z,0.90
2018-09-23T08:02:41.406Z,0.90
2018-09-23T08:03:41.446Z,0.80
2018-09-23T08:04:41.483Z,0.90
2018-09-23T08:05:41.523Z,1.00
2018-09-23T08:06:41.558Z,0.80
2018-09-23T08:07:41.597Z,0.90
2018-09-23T08:08:41.635Z,0.90
2018-09-23T08:09:41.672Z,0.80
2018-09-23T08:10:41.711Z,0.80
2018-09-23T08:11:41.749Z,1.00
2018-09-23T08:12:41.848Z,0.80
2018-09-23T08:13:41.988Z,0.90
2018-09-23T08:14:42.326Z,0.90
2018-09-23T08:15:41.902Z,1.00
2018-09-23T08:16:41.937Z,0.80
2018-09-23T08:17:41.975Z,0.80
2018-09-23T08:18:42.014Z,1.00
2018-09-23T08:19:42.141Z,0.80
2018-09-23T08:20:42.222Z,0.80
2018-09-23T08:21:42.127Z,0.90
2018-09-23T08:22:42.165Z,0.80
2018-09-23T08:23:42.202Z,1.10
2018-09-23T08:24:42.240Z,0.80
2018-09-23T08:25:42.349Z,0.80
2018-09-23T08:26:42.315Z,0.80
2018-09-23T08:27:42.353Z,0.70
2018-09-23T08:28:42.391Z,1.10
2018-09-23T08:29:42.430Z,0.70
2018-09-23T08:30:42.464Z,0.70
2018-09-23T08:31:42.504Z,0.90
2018-09-23T08:32:42.547Z,0.90
2018-09-23T08:33:42.577Z,0.70
2018-09-23T08:34:42.616Z,1.00
2018-09-23T08:35:42.656Z,0.80
2018-09-23T08:36:42.692Z,0.80
2018-09-23T08:37:42.728Z,0.80
2018-09-23T08:38:42.765Z,1.00
2018-09-23T08:39:42.820Z,0.80
2018-09-23T08:40:42.842Z,0.70
2018-09-23T08:41:42.877Z,0.80
2018-09-23T08:42:42.938Z,0.80
2018-09-23T08:43:42.953Z,0.80
2018-09-23T08:44:43.191Z,0.80
2018-09-23T08:45:43.027Z,0.80
2018-09-23T08:46:43.067Z,0.70
2018-09-23T08:47:43.104Z,0.70
2018-09-23T08:48:43.142Z,0.80
2018-09-23T08:49:43.178Z,0.70
2018-09-23T08:50:43.216Z,0.70
2018-09-23T08:51:43.302Z,0.80
2018-09-23T08:52:43.292Z,0.70
2018-09-23T08:53:43.329Z,1.10
2018-09-23T08:54:43.367Z,0.80
2018-09-23T08:55:43.405Z,1.10
2018-09-23T08:56:43.443Z,0.70
2018-09-23T08:57:43.512Z,0.80
2018-09-23T08:58:43.518Z,0.90
2018-09-23T08:59:43.557Z,0.80
2018-09-23T09:00:43.596Z,0.70
2018-09-23T09:01:43.632Z,1.00
2018-09-23T09:02:43.671Z,0.80
2018-09-23T09:03:43.775Z,0.70
2018-09-23T09:04:43.750Z,0.70
2018-09-23T09:05:43.786Z,0.80
2018-09-23T09:07:26.378Z,0.80
2018-09-23T09:08:26.421Z,1.00
2018-09-23T09:09:26.458Z,0.70
2018-09-23T09:10:26.496Z,0.90
2018-09-23T09:11:26.569Z,0.70
2018-09-23T09:12:26.576Z,0.70
2018-09-23T09:13:26.617Z,0.80
2018-09-23T09:14:26.656Z,0.70
2018-09-23T09:15:26.695Z,0.70
2018-09-23T09:16:26.735Z,0.80
2018-09-23T09:17:26.774Z,0.70
2018-09-23T09:18:26.969Z,1.00
2018-09-23T09:19:26.857Z,0.80
2018-09-23T09:20:26.898Z,0.70
2018-09-23T09:21:26.942Z,0.60
2018-09-23T09:22:26.981Z,0.90
2018-09-23T09:23:27.058Z,0.60
2018-09-23T09:24:27.067Z,0.60
2018-09-23T09:25:27.115Z,0.70
2018-09-23T09:26:27.171Z,0.70
2018-09-23T09:27:27.198Z,0.60
2018-09-23T09:28:27.290Z,0.70
2018-09-23T09:29:27.285Z,0.80
2018-09-23T09:30:27.330Z,0.60
2018-09-23T09:31:28.590Z,0.60
2018-09-23T09:33:09.985Z,0.70
2018-09-23T09:34:10.046Z,0.70
2018-09-23T09:35:10.071Z,0.70
2018-09-23T09:36:10.114Z,0.80
2018-09-23T09:37:10.162Z,0.70
2018-09-23T09:38:10.209Z,0.90
2018-09-23T09:39:10.256Z,0.70
2018-09-23T09:40:10.302Z,0.60
2018-09-23T09:41:10.350Z,0.60
2018-09-23T09:42:10.397Z,0.60
2018-09-23T09:43:10.445Z,0.60
2018-09-23T09:44:10.596Z,0.50
2018-09-23T09:45:10.543Z,0.80
2018-09-23T09:46:10.594Z,0.50
2018-09-23T09:47:10.639Z,0.60
2018-09-23T09:48:10.687Z,0.60
2018-09-23T09:49:10.736Z,0.70
2018-09-23T09:50:10.786Z,0.60
2018-09-23T09:51:10.837Z,0.60
2018-09-23T09:52:10.885Z,0.60
2018-09-23T09:53:10.931Z,0.50
2018-09-23T09:54:10.979Z,0.60
2018-09-23T09:55:11.053Z,0.60
2018-09-23T09:56:11.075Z,0.60
2018-09-23T09:57:11.124Z,0.70
2018-09-23T09:58:11.171Z,0.70
2018-09-23T09:59:11.218Z,0.60
2018-09-23T10:00:11.264Z,0.60
2018-09-23T10:01:11.367Z,0.60
2018-09-23T10:02:11.361Z,0.60
2018-09-23T10:03:11.409Z,0.60
2018-09-23T10:04:11.529Z,0.70
2018-09-23T10:05:11.504Z,0.60
2018-09-23T10:06:11.553Z,0.70
2018-09-23T10:07:11.601Z,0.70
2018-09-23T10:08:11.648Z,0.70
2018-09-23T10:09:11.696Z,0.60
2018-09-23T10:10:11.744Z,0.70
2018-09-23T10:11:11.795Z,0.60
2018-09-23T10:12:11.839Z,0.70
2018-09-23T10:13:11.887Z,0.60
2018-09-23T10:14:11.935Z,0.50
2018-09-23T10:15:11.985Z,0.50
2018-09-23T10:16:12.030Z,0.80
2018-09-23T10:17:12.077Z,0.60
2018-09-23T10:18:12.124Z,0.60
2018-09-23T10:19:12.169Z,0.60
2018-09-23T10:20:12.217Z,0.60
2018-09-23T10:21:12.265Z,0.60
2018-09-23T10:22:12.310Z,0.60
2018-09-23T10:23:12.459Z,0.70
2018-09-23T10:24:12.402Z,0.70
2018-09-23T10:25:12.447Z,0.70
2018-09-23T10:26:12.494Z,0.80
2018-09-23T10:27:12.538Z,0.70
2018-09-23T10:28:12.582Z,0.70
2018-09-23T10:29:12.628Z,0.60
2018-09-23T10:30:12.673Z,0.90
2018-09-23T10:31:12.853Z,0.60
2018-09-23T10:32:12.762Z,0.60
2018-09-23T10:33:12.807Z,0.60
2018-09-23T10:34:12.852Z,0.60
2018-09-23T10:35:12.898Z,0.60
2018-09-23T10:36:12.980Z,0.50
2018-09-23T10:37:12.986Z,0.70
2018-09-23T10:38:13.030Z,0.60
2018-09-23T10:39:13.077Z,0.60
2018-09-23T10:40:13.119Z,0.50
2018-09-23T10:41:13.171Z,0.60
2018-09-23T10:42:13.208Z,0.60
2018-09-23T10:43:13.254Z,0.50
2018-09-23T10:44:13.297Z,0.60
2018-09-23T10:45:13.342Z,0.60
2018-09-23T10:46:13.385Z,0.50
2018-09-23T10:47:13.431Z,0.60
2018-09-23T10:48:13.483Z,0.50
2018-09-23T10:49:13.520Z,0.60
2018-09-23T10:50:13.565Z,0.50
2018-09-23T10:51:13.611Z,0.60
2018-09-23T10:52:13.656Z,0.60
2018-09-23T10:53:13.701Z,0.80
2018-09-23T10:54:13.746Z,0.60
2018-09-23T10:55:13.791Z,0.70
2018-09-23T10:56:13.835Z,0.50
2018-09-23T10:57:13.881Z,0.60
2018-09-23T10:58:13.926Z,0.50
2018-09-23T10:59:13.972Z,0.50
2018-09-23T11:00:14.015Z,0.60
2018-09-23T11:01:14.061Z,0.60
2018-09-23T11:02:14.108Z,0.50
2018-09-23T11:03:14.151Z,0.60
2018-09-23T11:04:14.283Z,0.50
2018-09-23T11:05:14.242Z,0.60
2018-09-23T11:06:14.288Z,0.50
2018-09-23T11:07:14.386Z,0.60
2018-09-23T11:08:14.384Z,0.50
2018-09-23T11:09:14.451Z,0.40
2018-09-23T11:10:14.498Z,0.50
2018-09-23T11:11:14.522Z,0.50
2018-09-23T11:12:14.565Z,0.60
2018-09-23T11:13:14.621Z,0.50
2018-09-23T11:14:14.657Z,0.60
2018-09-23T11:15:14.708Z,0.50
2018-09-23T11:16:14.748Z,0.50
2018-09-23T11:17:14.843Z,0.50
2018-09-23T11:18:14.838Z,0.60
2018-09-23T11:19:14.884Z,0.50
2018-09-23T11:20:14.925Z,0.50
2018-09-23T11:21:14.970Z,0.40
2018-09-23T11:22:15.015Z,0.40
2018-09-23T11:23:15.091Z,0.50
2018-09-23T11:24:15.101Z,0.70
2018-09-23T11:25:15.173Z,0.50
2018-09-23T11:26:15.189Z,0.50
2018-09-23T11:27:15.232Z,0.60
2018-09-23T11:28:15.275Z,0.80
2018-09-23T11:29:15.318Z,0.60
2018-09-23T11:30:15.361Z,0.50
2018-09-23T11:31:15.405Z,0.50
2018-09-23T11:32:15.470Z,0.50
2018-09-23T11:33:15.489Z,0.50
2018-09-23T11:34:15.532Z,0.50
2018-09-23T11:35:15.574Z,0.50
2018-09-23T11:36:15.617Z,0.60
2018-09-23T11:37:15.658Z,0.50
2018-09-23T11:38:15.701Z,0.60
2018-09-23T11:39:15.743Z,0.50
2018-09-23T11:40:15.785Z,0.50
2018-09-23T11:41:15.828Z,0.60
2018-09-23T11:42:15.870Z,0.50
2018-09-23T11:43:15.912Z,0.50
2018-09-23T11:44:15.958Z,0.50
2018-09-23T11:45:15.992Z,0.50
2018-09-23T11:46:16.036Z,0.50
2018-09-23T11:47:16.077Z,0.70
2018-09-23T11:48:16.117Z,0.70
2018-09-23T11:49:16.159Z,0.70
2018-09-23T11:50:16.200Z,0.70
2018-09-23T11:51:16.241Z,0.80
2018-09-23T11:52:16.282Z,0.60
2018-09-23T11:53:16.324Z,0.60
2018-09-23T11:54:16.412Z,0.50
2018-09-23T11:55:16.405Z,0.50
2018-09-23T11:56:16.444Z,0.50
2018-09-23T11:57:16.486Z,0.50
2018-09-23T11:58:16.527Z,0.50
2018-09-23T11:59:16.568Z,0.60
2018-09-23T12:00:16.608Z,0.50
2018-09-23T12:01:16.650Z,0.50
2018-09-23T12:02:16.709Z,0.60
2018-09-23T12:03:16.730Z,0.50
2018-09-23T12:04:16.828Z,0.60
2018-09-23T12:05:16.811Z,0.60
2018-09-23T12:06:16.851Z,0.60
2018-09-23T12:07:16.893Z,0.50
2018-09-23T12:08:16.932Z,0.60
2018-09-23T12:09:16.974Z,0.50
2018-09-23T12:10:17.067Z,0.60
2018-09-23T12:11:17.054Z,0.60
2018-09-23T12:12:17.094Z,0.50
2018-09-23T12:13:17.139Z,0.70
2018-09-23T12:14:17.177Z,0.60
2018-09-23T12:15:17.217Z,0.60
2018-09-23T12:16:17.259Z,0.60
2018-09-23T12:17:17.301Z,0.60
2018-09-23T12:18:17.341Z,0.50
2018-09-23T12:19:17.381Z,0.50
2018-09-23T12:20:17.422Z,0.80
2018-09-23T12:21:17.463Z,1.30
2018-09-23T12:22:17.505Z,0.60
2018-09-23T12:23:17.549Z,0.60
2018-09-23T12:24:17.585Z,0.60
2018-09-23T12:25:17.668Z,0.50
2018-09-23T12:26:17.666Z,0.60
2018-09-23T12:27:17.710Z,0.70
2018-09-23T12:28:17.752Z,0.60
2018-09-23T12:29:17.790Z,0.50
2018-09-23T12:30:17.833Z,0.70
2018-09-23T12:31:17.875Z,0.50
2018-09-23T12:32:17.915Z,0.50
2018-09-23T12:33:18.027Z,0.50
2018-09-23T12:34:17.997Z,0.50
2018-09-23T12:35:18.038Z,0.60
2018-09-23T12:36:18.082Z,0.50
2018-09-23T12:37:18.120Z,0.50
2018-09-23T12:38:18.162Z,0.60
2018-09-23T12:39:18.203Z,0.50
2018-09-23T12:40:18.244Z,0.50
2018-09-23T12:41:18.285Z,0.50
2018-09-23T12:42:18.328Z,0.50
2018-09-23T12:43:18.370Z,0.60
2018-09-23T12:44:18.409Z,0.60
2018-09-23T12:45:18.449Z,0.50
2018-09-23T12:46:18.493Z,0.50
2018-09-23T12:47:18.534Z,0.60
2018-09-23T12:48:18.575Z,0.80
2018-09-23T12:49:18.618Z,0.60
2018-09-23T12:50:18.661Z,0.50
2018-09-23T12:51:18.706Z,0.50
2018-09-23T12:52:18.746Z,0.50
2018-09-23T12:53:18.789Z,0.70
2018-09-23T12:54:18.832Z,0.50
2018-09-23T12:55:18.876Z,0.50
2018-09-23T12:56:18.918Z,0.50
2018-09-23T12:57:18.962Z,0.60
2018-09-23T12:58:19.008Z,0.50
2018-09-23T12:59:19.049Z,0.60
2018-09-23T13:00:19.094Z,0.50
2018-09-23T13:01:19.137Z,0.60
2018-09-23T13:02:19.224Z,0.60
2018-09-23T13:03:19.247Z,0.70
2018-09-23T13:04:19.897Z,0.60
2018-09-23T13:05:19.312Z,0.70
2018-09-23T13:06:19.358Z,0.70
2018-09-23T13:07:19.401Z,0.50
2018-09-23T13:08:19.446Z,0.80
2018-09-23T13:09:19.490Z,0.60
2018-09-23T13:10:19.534Z,0.50
2018-09-23T13:11:19.579Z,0.70
2018-09-23T13:12:19.622Z,0.80
2018-09-23T13:13:19.667Z,0.90
2018-09-23T13:14:19.711Z,0.60
2018-09-23T13:15:19.756Z,0.50
2018-09-23T13:16:19.798Z,0.60
2018-09-23T13:17:19.842Z,0.70
2018-09-23T13:18:19.920Z,0.60
2018-09-23T13:19:19.944Z,0.60
2018-09-23T13:20:19.970Z,0.60